Metar Aviation Weather Data     YPAD Adelaide International Airport
Temperature
21°C Temperature
10°C Dewpoint
50% Humidity



Wind
29 KM/H
18 MPH
8 M/S
16 KTS



200°
SSW
Current Conditions

Partly Cloudy Partly Cloudy
Pressure 1017.95 (hPa) - 30.06 (inHg)
Visibility 6 (mile) - 9.7 (km)
Airport
Airport-code YPAD

Location: Adelaide International Airport
Distance: 150 (km)

Metar:
YPAD 230630Z 20016KT 9999 FEW037 BKN048 21/10 Q1018 RF00.0/000.0

Time: 23-02-2024 06:30 ACDT